createdAt,value
2023-10-28T00:01:14.794Z,15.30
2023-10-28T00:03:42.720Z,15.30
2023-10-28T00:06:10.606Z,15.30
2023-10-28T00:08:37.908Z,15.30
2023-10-28T00:11:05.346Z,15.30
2023-10-28T00:13:33.069Z,15.30
2023-10-28T00:16:00.617Z,15.40
2023-10-28T00:18:29.447Z,15.40
2023-10-28T00:20:57.431Z,15.40
2023-10-28T00:23:26.525Z,15.40
2023-10-28T00:26:02.945Z,15.40
2023-10-28T00:28:34.143Z,15.40
2023-10-28T00:31:05.015Z,15.40
2023-10-28T00:33:35.553Z,15.50
2023-10-28T00:36:10.556Z,15.40
2023-10-28T00:38:37.996Z,15.50
2023-10-28T00:41:05.780Z,15.50
2023-10-28T00:43:33.418Z,15.50
2023-10-28T00:46:03.963Z,15.50
2023-10-28T00:48:32.144Z,15.40
2023-10-28T00:50:59.584Z,15.80
2023-10-28T00:53:28.027Z,15.50
2023-10-28T00:55:55.589Z,15.50
2023-10-28T00:58:27.951Z,15.50
2023-10-28T01:00:55.733Z,15.50
2023-10-28T01:03:23.258Z,15.50
2023-10-28T01:05:51.339Z,15.50
2023-10-28T01:08:18.765Z,15.50
2023-10-28T01:10:46.418Z,15.50
2023-10-28T01:13:13.982Z,15.50
2023-10-28T01:15:41.348Z,15.60
2023-10-28T01:18:11.334Z,15.50
2023-10-28T01:20:38.920Z,15.50
2023-10-28T01:23:06.452Z,15.50
2023-10-28T01:25:34.958Z,15.60
2023-10-28T01:28:02.932Z,15.60
2023-10-28T01:30:30.361Z,15.60
2023-10-28T01:32:58.261Z,15.60
2023-10-28T01:35:25.802Z,15.60
2023-10-28T01:37:53.311Z,15.60
2023-10-28T01:40:20.875Z,15.50
2023-10-28T01:42:48.277Z,15.60
2023-10-28T01:45:19.181Z,15.50
2023-10-28T01:47:46.631Z,15.50
2023-10-28T01:50:14.798Z,15.50
2023-10-28T01:52:43.472Z,15.60
2023-10-28T01:55:12.512Z,15.50
2023-10-28T01:57:41.447Z,15.50
2023-10-28T02:00:13.603Z,15.50
2023-10-28T02:02:48.115Z,15.50
2023-10-28T02:05:19.809Z,15.50
2023-10-28T02:07:47.680Z,15.50
2023-10-28T02:10:15.142Z,15.50
2023-10-28T02:12:42.802Z,15.40
2023-10-28T02:15:10.489Z,15.40
2023-10-28T02:17:39.441Z,15.40
2023-10-28T02:20:08.145Z,15.40
2023-10-28T02:22:36.226Z,15.40
2023-10-28T02:25:05.237Z,15.40
2023-10-28T02:27:33.552Z,15.40
2023-10-28T02:30:01.451Z,15.40
2023-10-28T02:32:28.948Z,15.90
2023-10-28T02:34:56.705Z,15.40
2023-10-28T02:37:24.262Z,15.40
2023-10-28T02:39:52.188Z,15.40
2023-10-28T02:42:21.577Z,15.40
2023-10-28T02:44:49.284Z,15.30
2023-10-28T02:47:16.869Z,15.30
2023-10-28T02:49:44.400Z,15.30
2023-10-28T02:52:12.172Z,15.30
2023-10-28T02:54:40.610Z,15.40
2023-10-28T02:57:08.283Z,15.30
2023-10-28T02:59:35.639Z,15.30
2023-10-28T03:02:03.122Z,15.30
2023-10-28T03:04:30.639Z,15.30
2023-10-28T03:06:58.336Z,15.30
2023-10-28T03:09:25.841Z,15.30
2023-10-28T03:11:53.263Z,15.40
2023-10-28T03:14:20.794Z,15.30
2023-10-28T03:16:48.192Z,15.20
2023-10-28T03:19:15.628Z,15.30
2023-10-28T03:21:43.546Z,15.30
2023-10-28T03:24:10.848Z,15.30
2023-10-28T03:26:38.198Z,15.30
2023-10-28T03:29:06.924Z,15.30
2023-10-28T03:31:34.617Z,15.30
2023-10-28T03:34:02.036Z,15.30
2023-10-28T03:36:29.963Z,15.30
2023-10-28T03:38:57.881Z,15.20
2023-10-28T03:41:25.885Z,15.20
2023-10-28T03:43:53.233Z,15.20
2023-10-28T03:46:21.885Z,15.20
2023-10-28T03:48:50.548Z,15.20
2023-10-28T03:51:18.276Z,15.20
2023-10-28T03:53:46.020Z,15.20
2023-10-28T03:56:13.847Z,15.20
2023-10-28T03:58:41.336Z,15.20
2023-10-28T04:01:08.692Z,15.20
2023-10-28T04:03:36.199Z,15.20
2023-10-28T04:06:07.563Z,15.50
2023-10-28T04:08:35.421Z,15.20
2023-10-28T04:11:04.803Z,15.20
2023-10-28T04:13:33.078Z,15.20
2023-10-28T04:16:00.668Z,15.20
2023-10-28T04:18:28.192Z,15.20
2023-10-28T04:20:56.139Z,15.30
2023-10-28T04:23:23.610Z,15.30
2023-10-28T04:25:51.192Z,15.30
2023-10-28T04:28:18.573Z,15.30
2023-10-28T04:30:56.877Z,15.30
2023-10-28T04:33:25.890Z,15.30
2023-10-28T04:35:54.405Z,15.30
2023-10-28T04:38:22.905Z,15.40
2023-10-28T04:40:51.567Z,15.40
2023-10-28T04:43:21.178Z,15.30
2023-10-28T04:45:49.461Z,15.30
2023-10-28T04:48:17.219Z,15.40
2023-10-28T04:50:46.405Z,15.40
2023-10-28T04:53:13.865Z,15.40
2023-10-28T04:55:42.796Z,15.40
2023-10-28T04:58:10.227Z,15.40
2023-10-28T05:00:38.917Z,15.30
2023-10-28T05:03:06.668Z,15.30
2023-10-28T05:05:34.180Z,15.40
2023-10-28T05:08:01.635Z,15.40
2023-10-28T05:10:32.002Z,15.90
2023-10-28T05:13:00.811Z,15.40
2023-10-28T05:15:29.948Z,15.40
2023-10-28T05:17:57.343Z,15.40
2023-10-28T05:20:25.736Z,15.40
2023-10-28T05:22:53.373Z,15.40
2023-10-28T05:25:21.002Z,15.40
2023-10-28T05:27:50.214Z,15.40
2023-10-28T05:30:17.600Z,15.40
2023-10-28T05:32:45.114Z,15.40
2023-10-28T05:35:14.378Z,15.40
2023-10-28T05:37:41.950Z,15.40
2023-10-28T05:40:14.548Z,15.40
2023-10-28T05:42:42.497Z,15.50
2023-10-28T05:45:11.559Z,15.40
2023-10-28T05:47:39.399Z,15.40
2023-10-28T05:50:07.334Z,15.40
2023-10-28T05:52:35.797Z,15.40
2023-10-28T05:55:04.222Z,15.40
2023-10-28T05:57:31.992Z,15.30
2023-10-28T05:59:59.560Z,15.30
2023-10-28T06:02:27.058Z,15.30
2023-10-28T06:04:54.679Z,15.30
2023-10-28T06:07:22.097Z,15.40
2023-10-28T06:09:49.444Z,15.40
2023-10-28T06:12:16.768Z,15.30
2023-10-28T06:14:44.219Z,15.40
2023-10-28T06:17:11.671Z,15.80
2023-10-28T06:19:39.090Z,15.30
2023-10-28T06:22:06.474Z,15.30
2023-10-28T06:24:33.899Z,15.30
2023-10-28T06:27:03.408Z,15.40
2023-10-28T06:29:31.469Z,15.30
2023-10-28T06:32:04.846Z,15.40
2023-10-28T06:34:32.930Z,15.40
2023-10-28T06:37:01.699Z,15.40
2023-10-28T06:39:29.041Z,15.40
2023-10-28T06:41:56.379Z,15.40
2023-10-28T06:44:25.388Z,15.40
2023-10-28T06:46:52.877Z,15.50
2023-10-28T06:49:20.995Z,15.50
2023-10-28T06:51:48.372Z,15.50
2023-10-28T06:54:16.106Z,15.50
2023-10-28T06:56:43.731Z,15.50
2023-10-28T06:59:11.453Z,15.50
2023-10-28T07:01:38.874Z,15.50
2023-10-28T07:04:07.191Z,15.50
2023-10-28T07:06:34.549Z,15.50
2023-10-28T07:09:02.009Z,15.60
2023-10-28T07:11:29.783Z,15.60
2023-10-28T07:13:57.172Z,15.60
2023-10-28T07:16:24.597Z,15.60
2023-10-28T07:18:52.042Z,15.60
2023-10-28T07:21:19.541Z,15.50
2023-10-28T07:23:47.483Z,15.60
2023-10-28T07:26:15.359Z,15.60
2023-10-28T07:28:42.806Z,15.60
2023-10-28T07:31:10.376Z,15.60
2023-10-28T07:33:38.209Z,15.60
2023-10-28T07:36:06.256Z,15.60
2023-10-28T07:38:33.738Z,15.60
2023-10-28T07:41:01.595Z,15.60
2023-10-28T07:43:28.979Z,15.60
2023-10-28T07:45:57.437Z,15.60
2023-10-28T07:48:27.215Z,15.60
2023-10-28T07:50:55.512Z,15.70
2023-10-28T07:53:23.232Z,15.70
2023-10-28T07:55:50.684Z,15.70
2023-10-28T07:58:18.312Z,15.70
2023-10-28T08:00:47.279Z,15.70
2023-10-28T08:03:16.972Z,16.10
2023-10-28T08:05:45.510Z,15.70
2023-10-28T08:08:13.390Z,15.70
2023-10-28T08:10:41.595Z,16.20
2023-10-28T08:13:09.176Z,15.70
2023-10-28T08:15:36.623Z,15.80
2023-10-28T08:18:04.926Z,15.80
2023-10-28T08:20:32.388Z,15.70
2023-10-28T08:22:59.749Z,15.80
2023-10-28T08:25:27.873Z,15.80
2023-10-28T08:27:55.551Z,15.80
2023-10-28T08:30:24.534Z,15.80
2023-10-28T08:32:53.115Z,15.80
2023-10-28T08:35:22.113Z,15.90
2023-10-28T08:37:49.575Z,15.90
2023-10-28T08:40:17.024Z,15.90
2023-10-28T08:42:45.906Z,15.90
2023-10-28T08:45:15.235Z,15.90
2023-10-28T08:47:43.891Z,16.00
2023-10-28T08:50:18.297Z,15.90
2023-10-28T08:52:48.766Z,16.00
2023-10-28T08:55:16.435Z,16.00
2023-10-28T08:57:47.787Z,16.10
2023-10-28T09:00:15.744Z,16.10
2023-10-28T09:02:48.189Z,16.10
2023-10-28T09:05:17.354Z,16.00
2023-10-28T09:07:46.786Z,16.10
2023-10-28T09:10:15.075Z,16.10
2023-10-28T09:12:45.101Z,16.10
2023-10-28T09:15:13.099Z,16.20
2023-10-28T09:17:41.257Z,16.20
2023-10-28T09:20:13.344Z,16.60
2023-10-28T09:22:44.654Z,16.20
2023-10-28T09:25:15.673Z,16.20
2023-10-28T09:27:44.418Z,16.30
2023-10-28T09:30:12.773Z,16.30
2023-10-28T09:32:40.538Z,16.40
2023-10-28T09:35:09.686Z,16.40
2023-10-28T09:37:39.530Z,16.40
2023-10-28T09:40:09.286Z,16.40
2023-10-28T09:42:38.468Z,16.40
2023-10-28T09:45:09.278Z,16.60
2023-10-28T09:47:48.754Z,16.60
2023-10-28T09:50:20.360Z,16.70
2023-10-28T09:52:49.830Z,16.70
2023-10-28T09:55:23.752Z,16.70
2023-10-28T09:57:56.787Z,16.70
2023-10-28T10:00:26.737Z,16.80
2023-10-28T10:03:17.938Z,16.90
2023-10-28T10:05:46.121Z,16.90
2023-10-28T10:08:22.936Z,17.00
2023-10-28T10:10:54.259Z,17.20
2023-10-28T10:13:23.217Z,17.00
2023-10-28T10:16:04.591Z,17.10
2023-10-28T10:18:47.732Z,17.10
2023-10-28T10:21:19.932Z,17.20
2023-10-28T10:23:52.003Z,17.20
2023-10-28T10:26:25.503Z,17.30
2023-10-28T10:28:59.687Z,17.30
2023-10-28T10:31:52.614Z,17.40
2023-10-28T10:34:40.671Z,17.40
2023-10-28T10:37:10.825Z,17.40
2023-10-28T10:39:45.175Z,17.40
2023-10-28T10:42:14.148Z,17.50
2023-10-28T10:44:41.967Z,17.50
2023-10-28T10:47:10.514Z,17.50
2023-10-28T10:49:41.741Z,17.60
2023-10-28T10:52:11.589Z,17.60
2023-10-28T10:54:40.743Z,17.90
2023-10-28T10:57:09.605Z,17.70
2023-10-28T10:59:41.209Z,17.70
2023-10-28T11:21:48.948Z,15.90
2023-10-28T11:24:17.223Z,15.80
2023-10-28T11:26:48.627Z,15.90
2023-10-28T11:29:17.939Z,16.60
2023-10-28T11:31:47.020Z,16.40
2023-10-28T11:34:15.080Z,16.60
2023-10-28T11:36:42.954Z,16.80
2023-10-28T11:39:15.229Z,17.00
2023-10-28T11:41:45.091Z,17.20
2023-10-28T11:44:13.584Z,17.30
2023-10-28T11:46:41.081Z,17.40
2023-10-28T11:49:09.213Z,17.60
2023-10-28T11:51:36.725Z,17.70
2023-10-28T11:54:04.945Z,17.80
2023-10-28T11:56:35.979Z,17.90
2023-10-28T11:59:03.762Z,17.90
2023-10-28T12:01:35.356Z,18.30
2023-10-28T12:04:04.509Z,18.10
2023-10-28T12:06:32.777Z,18.10
2023-10-28T12:09:01.310Z,18.10
2023-10-28T12:11:29.395Z,18.20
2023-10-28T12:13:57.687Z,18.30
2023-10-28T12:16:25.937Z,18.20
2023-10-28T12:18:53.584Z,18.30
2023-10-28T12:21:21.219Z,18.30
2023-10-28T12:23:50.089Z,18.30
2023-10-28T12:26:18.737Z,18.30
2023-10-28T12:28:50.605Z,18.30
2023-10-28T12:31:18.091Z,18.30
2023-10-28T12:33:45.566Z,18.30
2023-10-28T12:36:12.878Z,18.30
2023-10-28T12:38:40.564Z,18.30
2023-10-28T12:41:07.941Z,18.30
2023-10-28T12:43:36.173Z,18.30
2023-10-28T12:46:04.850Z,18.30
2023-10-28T12:48:32.579Z,18.30
2023-10-28T12:51:03.825Z,18.30
2023-10-28T12:53:31.425Z,18.30
2023-10-28T12:55:59.349Z,18.40
2023-10-28T12:58:27.369Z,18.30
2023-10-28T13:00:57.687Z,18.30
2023-10-28T13:03:25.548Z,18.20
2023-10-28T13:05:53.112Z,18.20
2023-10-28T13:08:20.589Z,18.20
2023-10-28T13:10:47.978Z,18.20
2023-10-28T13:13:15.798Z,18.20
2023-10-28T13:15:43.343Z,18.20
2023-10-28T13:18:12.218Z,18.20
2023-10-28T13:20:40.054Z,18.20
2023-10-28T13:23:07.425Z,18.20
2023-10-28T13:25:34.999Z,18.10
2023-10-28T13:28:02.677Z,18.10
2023-10-28T13:30:29.966Z,18.10
2023-10-28T13:32:57.427Z,18.10
2023-10-28T13:35:24.920Z,18.00
2023-10-28T13:37:53.205Z,18.00
2023-10-28T13:40:20.909Z,18.00
2023-10-28T13:42:48.267Z,18.00
2023-10-28T13:45:15.951Z,18.00
2023-10-28T13:47:43.644Z,17.90
2023-10-28T13:50:12.951Z,17.90
2023-10-28T13:52:40.882Z,17.90
2023-10-28T13:55:08.803Z,17.80
2023-10-28T13:57:36.860Z,17.80
2023-10-28T14:00:11.295Z,17.70
2023-10-28T14:02:39.253Z,17.70
2023-10-28T14:05:10.132Z,17.60
2023-10-28T14:07:38.412Z,17.60
2023-10-28T14:10:07.957Z,17.60
2023-10-28T14:12:35.682Z,17.60
2023-10-28T14:15:04.378Z,17.50
2023-10-28T14:17:32.087Z,17.60
2023-10-28T14:19:59.592Z,17.60
2023-10-28T14:22:27.210Z,17.60
2023-10-28T14:24:54.547Z,17.50
2023-10-28T14:27:21.860Z,17.50
2023-10-28T14:29:49.480Z,17.40
2023-10-28T14:32:17.519Z,17.40
2023-10-28T14:34:45.063Z,17.40
2023-10-28T14:37:13.138Z,17.40
2023-10-28T14:39:40.575Z,17.40
2023-10-28T14:42:09.095Z,17.40
2023-10-28T14:44:37.383Z,17.40
2023-10-28T14:47:05.879Z,17.40
2023-10-28T14:49:33.262Z,17.40
2023-10-28T14:52:01.435Z,17.40
2023-10-28T14:54:29.758Z,17.30
2023-10-28T14:56:57.671Z,17.30
2023-10-28T14:59:31.888Z,17.30
2023-10-28T15:02:02.452Z,17.20
2023-10-28T15:04:29.993Z,17.30
2023-10-28T15:06:57.544Z,17.20
2023-10-28T15:09:26.490Z,17.20
2023-10-28T15:11:53.826Z,17.20
2023-10-28T15:14:21.368Z,17.20
2023-10-28T15:16:49.548Z,17.20
2023-10-28T15:19:17.066Z,17.60
2023-10-28T15:21:44.610Z,17.20
2023-10-28T15:24:12.204Z,17.10
2023-10-28T15:26:40.647Z,17.20
2023-10-28T15:29:08.973Z,17.20
2023-10-28T15:31:36.723Z,17.10
2023-10-28T15:34:04.657Z,17.10
2023-10-28T15:36:32.067Z,17.10
2023-10-28T15:38:59.482Z,17.10
2023-10-28T15:41:27.029Z,17.20
2023-10-28T15:43:55.243Z,17.10
2023-10-28T15:46:23.008Z,17.10
2023-10-28T15:48:50.886Z,17.10
2023-10-28T15:51:20.331Z,17.10
2023-10-28T15:53:47.741Z,17.10
2023-10-28T15:56:15.278Z,17.10
2023-10-28T15:58:45.958Z,17.00
2023-10-28T16:01:13.647Z,17.00
2023-10-28T16:03:41.394Z,17.00
2023-10-28T16:06:13.272Z,17.00
2023-10-28T16:08:42.583Z,16.90
2023-10-28T16:11:14.458Z,16.90
2023-10-28T16:13:44.857Z,17.00
2023-10-28T16:16:14.952Z,17.00
2023-10-28T16:18:43.013Z,17.00
2023-10-28T16:21:10.545Z,16.90
2023-10-28T16:23:38.317Z,17.40
2023-10-28T16:26:05.951Z,17.00
2023-10-28T16:28:34.073Z,17.00
2023-10-28T16:31:07.869Z,17.40
2023-10-28T16:33:36.776Z,17.00
2023-10-28T16:36:04.942Z,16.90
2023-10-28T16:38:33.421Z,16.90
2023-10-28T16:41:00.962Z,16.90
2023-10-28T16:43:28.521Z,16.80
2023-10-28T16:46:00.712Z,16.80
2023-10-28T16:48:28.218Z,16.80
2023-10-28T16:50:55.839Z,16.80
2023-10-28T16:53:27.243Z,16.80
2023-10-28T16:56:05.528Z,17.30
2023-10-28T16:58:34.421Z,16.80
2023-10-28T17:01:05.146Z,16.80
2023-10-28T17:03:34.390Z,17.30
2023-10-28T17:06:02.276Z,16.90
2023-10-28T17:08:29.790Z,16.80
2023-10-28T17:11:01.304Z,16.80
2023-10-28T17:13:29.011Z,16.80
2023-10-28T17:15:58.160Z,16.80
2023-10-28T17:18:26.557Z,17.10
2023-10-28T17:20:54.091Z,16.80
2023-10-28T17:23:22.264Z,16.80
2023-10-28T17:25:51.567Z,16.80
2023-10-28T17:28:25.251Z,16.80
2023-10-28T17:30:53.281Z,16.80
2023-10-28T17:33:22.543Z,16.70
2023-10-28T17:35:50.371Z,16.60
2023-10-28T17:38:22.873Z,16.70
2023-10-28T17:40:50.853Z,16.70
2023-10-28T17:43:18.458Z,16.70
2023-10-28T17:45:46.213Z,16.70
2023-10-28T17:48:15.837Z,16.80
2023-10-28T17:50:43.293Z,16.80
2023-10-28T17:53:11.194Z,16.80
2023-10-28T17:55:39.776Z,17.10
2023-10-28T17:58:07.492Z,16.80
2023-10-28T18:00:35.143Z,16.80
2023-10-28T18:03:02.662Z,16.70
2023-10-28T18:05:33.547Z,16.70
2023-10-28T18:08:04.973Z,17.10
2023-10-28T18:10:38.489Z,16.70
2023-10-28T18:13:06.500Z,16.40
2023-10-28T18:15:33.938Z,16.70
2023-10-28T18:18:02.366Z,16.70
2023-10-28T18:20:29.832Z,16.70
2023-10-28T18:22:57.379Z,16.70
2023-10-28T18:25:24.933Z,16.70
2023-10-28T18:27:52.852Z,16.70
2023-10-28T18:30:20.884Z,16.70
2023-10-28T18:32:48.390Z,16.70
2023-10-28T18:35:17.393Z,16.70
2023-10-28T18:37:46.678Z,16.80
2023-10-28T18:40:17.646Z,16.40
2023-10-28T18:42:45.486Z,16.80
2023-10-28T18:45:13.937Z,17.10
2023-10-28T18:47:41.675Z,17.10
2023-10-28T18:50:09.941Z,16.80
2023-10-28T18:52:38.823Z,16.90
2023-10-28T18:55:06.755Z,16.80
2023-10-28T18:57:34.250Z,16.80
2023-10-28T19:00:02.190Z,16.90
2023-10-28T19:02:30.518Z,16.80
2023-10-28T19:05:26.264Z,16.90
2023-10-28T19:07:53.796Z,16.40
2023-10-28T19:11:13.323Z,17.20
2023-10-28T19:13:41.817Z,16.50
2023-10-28T19:16:11.582Z,17.20
2023-10-28T19:18:42.971Z,17.00
2023-10-28T19:21:10.748Z,17.10
2023-10-28T19:23:38.951Z,17.20
2023-10-28T19:26:06.872Z,16.90
2023-10-28T19:28:34.767Z,17.20
2023-10-28T19:31:03.887Z,17.00
2023-10-28T19:33:34.072Z,17.20
2023-10-28T19:36:07.343Z,16.90
2023-10-28T19:38:35.550Z,17.10
2023-10-28T19:41:03.061Z,16.90
2023-10-28T19:43:30.900Z,16.90
2023-10-28T19:45:58.793Z,16.90
2023-10-28T19:48:28.128Z,17.30
2023-10-28T19:51:06.087Z,16.90
2023-10-28T19:53:34.401Z,16.80
2023-10-28T19:56:03.942Z,17.00
2023-10-28T19:58:32.762Z,16.80
2023-10-28T20:01:00.283Z,16.90
2023-10-28T20:03:27.871Z,17.10
2023-10-28T20:05:55.338Z,16.80
2023-10-28T20:08:22.814Z,16.80
2023-10-28T20:10:50.387Z,16.80
2023-10-28T20:13:17.995Z,16.90
2023-10-28T20:15:45.454Z,16.80
2023-10-28T20:18:12.948Z,16.70
2023-10-28T20:20:41.164Z,17.20
2023-10-28T20:23:09.432Z,16.70
2023-10-28T20:25:36.901Z,16.70
2023-10-28T20:28:05.092Z,16.70
2023-10-28T20:30:33.259Z,16.70
2023-10-28T20:33:01.037Z,16.70
2023-10-28T20:35:30.473Z,17.00
2023-10-28T20:38:00.850Z,16.70
2023-10-28T20:40:31.572Z,17.20
2023-10-28T20:42:59.397Z,16.70
2023-10-28T20:45:26.787Z,16.70
2023-10-28T20:47:57.066Z,16.70
2023-10-28T20:50:25.044Z,16.60
2023-10-28T20:52:52.937Z,17.10
2023-10-28T20:55:21.810Z,16.60
2023-10-28T20:57:52.102Z,16.60
2023-10-28T21:00:19.806Z,16.60
2023-10-28T21:03:13.427Z,16.60
2023-10-28T21:05:41.333Z,16.60
2023-10-28T21:08:08.814Z,16.60
2023-10-28T21:10:36.301Z,16.50
2023-10-28T21:13:07.899Z,16.60
2023-10-28T21:15:35.351Z,16.60
2023-10-28T21:18:02.750Z,16.90
2023-10-28T21:20:30.244Z,16.60
2023-10-28T21:22:57.632Z,16.60
2023-10-28T21:25:25.253Z,16.60
2023-10-28T21:27:52.814Z,16.60
2023-10-28T21:30:22.738Z,16.60
2023-10-28T21:32:50.130Z,16.60
2023-10-28T21:35:17.967Z,16.60
2023-10-28T21:37:45.258Z,16.70
2023-10-28T21:40:13.337Z,16.60
2023-10-28T21:42:41.652Z,16.60
2023-10-28T21:45:10.345Z,16.60
2023-10-28T21:47:38.308Z,16.60
2023-10-28T21:50:06.685Z,16.90
2023-10-28T21:52:34.291Z,16.60
2023-10-28T21:55:01.659Z,16.60
2023-10-28T21:57:29.070Z,16.60
2023-10-28T21:59:56.470Z,16.60
2023-10-28T22:02:25.243Z,16.40
2023-10-28T22:04:56.383Z,16.60
2023-10-28T22:07:23.760Z,16.60
2023-10-28T22:09:52.345Z,16.90
2023-10-28T22:12:19.809Z,16.60
2023-10-28T22:14:47.324Z,16.90
2023-10-28T22:17:14.942Z,16.60
2023-10-28T22:19:42.756Z,16.60
2023-10-28T22:22:10.158Z,16.90
2023-10-28T22:24:37.517Z,17.00
2023-10-28T22:27:05.171Z,16.60
2023-10-28T22:29:32.558Z,16.60
2023-10-28T22:32:00.101Z,16.50
2023-10-28T22:34:27.886Z,16.60
2023-10-28T22:36:56.276Z,17.00
2023-10-28T22:39:23.625Z,17.00
2023-10-28T22:41:51.029Z,16.50
2023-10-28T22:44:19.723Z,16.70
2023-10-28T22:46:47.914Z,16.50
2023-10-28T22:49:15.248Z,16.80
2023-10-28T22:51:42.861Z,16.60
2023-10-28T22:54:10.835Z,16.60
2023-10-28T22:56:38.374Z,16.60
2023-10-28T22:59:06.472Z,16.60
2023-10-28T23:01:34.054Z,16.60
2023-10-28T23:04:01.442Z,16.60
2023-10-28T23:06:28.885Z,16.60
2023-10-28T23:08:56.264Z,16.60
2023-10-28T23:11:23.809Z,16.50
2023-10-28T23:13:51.136Z,16.50
2023-10-28T23:16:18.754Z,17.00
2023-10-28T23:18:46.119Z,16.50
2023-10-28T23:21:13.890Z,16.80
2023-10-28T23:23:41.320Z,16.60
2023-10-28T23:26:08.669Z,16.50
2023-10-28T23:28:36.118Z,16.50
2023-10-28T23:31:04.229Z,16.50
2023-10-28T23:33:31.740Z,16.50
2023-10-28T23:35:59.081Z,16.50
2023-10-28T23:38:26.701Z,16.60
2023-10-28T23:40:54.088Z,16.50
2023-10-28T23:43:22.571Z,16.50
2023-10-28T23:45:50.934Z,16.50
2023-10-28T23:48:18.337Z,16.50
2023-10-28T23:50:46.202Z,16.50
2023-10-28T23:53:15.851Z,16.50
2023-10-28T23:55:43.237Z,16.50
2023-10-28T23:58:10.994Z,16.70
